Time;durP1;ratioP1;P1;durP2;ratioP2;P2;SDS_P1;SDS_P2;PMS_P1;PMS_P2;Temp;Humidity;BMP_temperature;BMP_pressure;BME280_temperature;BME280_humidity;BME280_pressure;Samples;Min_cycle;Max_cycle;Signal;HPM_P1;HPM_P2
2023/11/06 00:00:55;;;;;;;;;;;;;;;;;;;;;
2023/11/06 00:12:47;;;;;;;;;;;;;;;;;;;;;
2023/11/06 00:18:48;;;;;;;4.30;1.60;;;;;;;10.73;100.00;97936.23;223119;1265;140043;-84
2023/11/06 00:24:49;;;;;;;5.50;1.70;;;;;;;10.69;100.00;97947.34;223752;1265;139454;-85
2023/11/06 00:30:51;;;;;;;4.50;1.80;;;;;;;10.64;100.00;97958.80;223128;1265;140112;-86
2023/11/06 00:37:01;;;;;;;3.50;1.90;;;;;;;10.60;100.00;97965.59;223767;1266;138574;-85
2023/11/06 00:43:11;;;;;;;4.80;1.70;;;;;;;10.55;100.00;97978.73;223269;1265;139733;-85
2023/11/06 00:49:11;;;;;;;6.20;1.70;;;;;;;10.51;100.00;97992.58;223196;1265;139745;-85
2023/11/06 00:55:12;;;;;;;7.50;1.90;;;;;;;10.49;100.00;97998.98;223624;1265;139267;-87
2023/11/06 01:00:57;;;;;;;4.20;2.10;;;;;;;10.46;100.00;98006.30;223211;1265;140004;-87
2023/11/06 01:06:59;;;;;;;5.50;2.10;;;;;;;10.43;100.00;98018.40;223706;1265;139331;-87
2023/11/06 01:18:31;;;;;;;;;;;;;;;;;;;;;
2023/11/06 01:24:31;;;;;;;5.50;1.70;;;;;;;10.28;100.00;98041.19;223773;1265;138776;-88
2023/11/06 01:30:25;;;;;;;2.90;1.30;;;;;;;10.25;100.00;98058.45;223260;1265;139884;-87
2023/11/06 01:36:25;;;;;;;3.40;1.40;;;;;;;10.23;100.00;98065.42;223823;1265;138979;-91
2023/11/06 01:42:26;;;;;;;4.30;1.50;;;;;;;10.21;100.00;98079.69;223328;1265;140019;-88
2023/11/06 01:48:25;;;;;;;;;;;;;;;;;;;;;
2023/11/06 01:54:27;;;;;;;4.90;1.60;;;;;;;10.19;100.00;98094.98;223775;1265;138950;-89
2023/11/06 02:00:23;;;;;;;4.00;1.40;;;;;;;10.18;100.00;98110.55;223208;1265;139774;-89
2023/11/06 02:12:23;;;;;;;8.20;1.60;;;;;;;10.16;100.00;98131.39;223132;1265;140584;-93
2023/11/06 02:18:18;;;;;;;5.40;1.80;;;;;;;10.16;100.00;98147.42;223137;1265;139781;-89
2023/11/06 02:24:10;;;;;;;4.40;1.60;;;;;;;10.16;100.00;98154.09;223645;1265;138653;-89
2023/11/06 02:30:04;;;;;;;;;;;;;;;;;;;;;
2023/11/06 02:36:03;;;;;;;4.80;1.80;;;;;;;10.16;100.00;98177.41;223846;1265;138591;-87
2023/11/06 02:41:57;;;;;;;;;;;;;;;;;;;;;
2023/11/06 02:48:06;;;;;;;4.30;2.10;;;;;;;10.14;100.00;98203.70;223110;1265;139875;-90
2023/11/06 02:54:05;;;;;;;;;;;;;;;;;;;;;
2023/11/06 02:59:48;;;;;;;6.70;2.00;;;;;;;10.11;100.00;98220.33;223081;1265;139748;-91
2023/11/06 03:05:49;;;;;;;4.30;1.90;;;;;;;10.11;100.00;98234.61;223783;1265;138620;-89
2023/11/06 03:11:50;;;;;;;7.40;1.90;;;;;;;10.12;100.00;98247.15;223150;1265;139809;-89
2023/11/06 03:17:52;;;;;;;4.80;1.80;;;;;;;10.13;100.00;98252.39;223632;1266;138660;-89
2023/11/06 03:23:53;;;;;;;4.30;1.90;;;;;;;10.13;100.00;98269.59;223618;1265;139301;-87
2023/11/06 03:29:54;;;;;;;4.10;1.50;;;;;;;10.14;100.00;98286.08;223296;1265;139817;-87
2023/11/06 03:35:55;;;;;;;4.20;1.70;;;;;;;10.14;100.00;98293.12;223764;1265;139390;-88
2023/11/06 03:41:49;;;;;;;3.90;1.70;;;;;;;10.14;100.00;98310.08;223063;1265;139900;-87
2023/11/06 03:47:52;;;;;;;9.10;1.70;;;;;;;10.13;100.00;98321.17;223790;1265;138564;-87
2023/11/06 03:53:53;;;;;;;3.90;2.00;;;;;;;10.10;100.00;98330.43;223750;1265;139172;-85
2023/11/06 03:59:54;;;;;;;5.30;2.30;;;;;;;10.08;100.00;98334.09;223122;1265;139720;-86
2023/11/06 04:05:55;;;;;;;5.30;1.70;;;;;;;10.07;100.00;98346.89;223737;1265;138585;-86
2023/11/06 04:11:56;;;;;;;5.10;1.40;;;;;;;10.07;100.00;98365.04;223198;1265;139837;-86
2023/11/06 04:17:57;;;;;;;4.10;1.50;;;;;;;10.09;100.00;98368.77;223599;1265;138638;-84
2023/11/06 04:23:59;;;;;;;5.20;1.50;;;;;;;10.07;100.00;98371.96;223930;1265;138672;-84
2023/11/06 04:29:58;;;;;;;;;;;;;;;;;;;;;
2023/11/06 04:36:01;;;;;;;3.40;1.40;;;;;;;10.01;100.00;98397.95;223778;1265;139091;-86
2023/11/06 04:42:01;;;;;;;4.10;1.60;;;;;;;9.97;100.00;98400.29;223116;1265;139958;-85
2023/11/06 04:47:51;;;;;;;7.20;1.80;;;;;;;9.97;100.00;98411.53;223659;1265;139400;-84
2023/11/06 04:53:48;;;;;;;4.40;1.50;;;;;;;9.95;100.00;98428.13;223795;1265;139238;-84
2023/11/06 04:59:40;;;;;;;;;;;;;;;;;;;;;
2023/11/06 05:05:40;;;;;;;;;;;;;;;;;;;;;
2023/11/06 05:11:42;;;;;;;6.50;1.80;;;;;;;9.83;100.00;98442.80;223222;1265;139652;-85
2023/11/06 05:17:41;;;;;;;;;;;;;;;;;;;;;
2023/11/06 05:23:36;;;;;;;5.30;1.70;;;;;;;9.73;100.00;98458.34;223573;1265;138804;-85
2023/11/06 05:29:37;;;;;;;7.30;2.00;;;;;;;9.69;100.00;98474.04;223086;1266;139471;-86
2023/11/06 05:35:39;;;;;;;3.90;1.70;;;;;;;9.68;100.00;98485.98;223619;1265;138607;-85
2023/11/06 05:41:39;;;;;;;5.10;1.60;;;;;;;9.68;100.00;98497.50;223189;1265;139769;-87
2023/11/06 05:47:35;;;;;;;4.90;1.60;;;;;;;9.69;100.00;98518.54;223721;1265;138375;-86
2023/11/06 05:59:38;;;;;;;4.60;1.70;;;;;;;9.74;100.00;98544.91;223055;1265;140007;-84
2023/11/06 06:05:26;;;;;;;8.20;1.70;;;;;;;9.78;100.00;98554.95;223665;1265;138473;-85
2023/11/06 06:11:20;;;;;;;3.80;1.30;;;;;;;9.81;100.00;98565.10;223292;1265;139225;-87
2023/11/06 06:17:20;;;;;;;7.30;1.50;;;;;;;9.84;100.00;98575.28;223776;1266;138615;-85
2023/11/06 06:23:21;;;;;;;9.00;1.50;;;;;;;9.87;100.00;98582.52;223663;1265;138420;-85
2023/11/06 06:29:22;;;;;;;5.70;1.60;;;;;;;9.91;100.00;98592.19;223149;1266;139779;-83
2023/11/06 06:35:24;;;;;;;7.90;1.60;;;;;;;9.94;100.00;98605.11;223581;1266;138386;-85
2023/11/06 06:41:16;;;;;;;4.70;1.50;;;;;;;9.97;100.00;98622.33;223013;1265;139612;-85
2023/11/06 06:47:18;;;;;;;8.00;1.70;;;;;;;9.99;100.00;98639.48;223822;1265;95829;-84
2023/11/06 06:53:17;;;;;;;;;;;;;;;;;;;;;
2023/11/06 06:59:08;;;;;;;5.10;1.70;;;;;;;10.07;100.00;98657.68;223098;1266;139254;-83
2023/11/06 07:05:10;;;;;;;5.60;1.50;;;;;;;10.11;100.00;98663.67;223947;1265;95842;-83
2023/11/06 07:11:10;;;;;;;4.50;1.20;;;;;;;10.14;100.00;98677.05;223140;1265;140491;-84
2023/11/06 07:17:12;;;;;;;6.00;1.20;;;;;;;10.19;100.00;98687.66;223830;1265;96234;-84
2023/11/06 07:23:13;;;;;;;3.60;1.30;;;;;;;10.23;100.00;98698.59;223624;1266;95935;-83
2023/11/06 07:29:14;;;;;;;7.30;1.80;;;;;;;10.29;100.00;98708.70;223178;1267;140499;-85
2023/11/06 07:35:13;;;;;;;;;;;;;;;;;;;;;
2023/11/06 07:41:15;;;;;;;8.40;2.10;;;;;;;10.42;100.00;98728.70;223140;1265;139733;-84
2023/11/06 07:46:54;;;;;;;6.90;1.40;;;;;;;10.50;100.00;98746.56;223740;1265;96055;-84
2023/11/06 07:52:39;;;;;;;10.60;1.60;;;;;;;10.55;100.00;98757.42;223099;1266;139545;-85
2023/11/06 07:58:42;;;;;;;5.70;1.70;;;;;;;10.62;100.00;98761.31;223222;1265;140093;-85
2023/11/06 08:16:42;;;;;;;;;;;;;;;;;;;;;
2023/11/06 08:22:45;;;;;;;7.60;1.80;;;;;;;11.14;100.00;98800.38;223162;1266;139656;-85
2023/11/06 08:28:46;;;;;;;5.50;1.60;;;;;;;11.31;100.00;98813.45;223113;1265;139488;-85
2023/11/06 08:34:48;;;;;;;5.80;1.60;;;;;;;11.45;100.00;98824.13;223557;1266;138693;-85
2023/11/06 08:40:50;;;;;;;6.80;1.70;;;;;;;11.73;100.00;98832.08;223152;1266;139817;-87
2023/11/06 08:46:51;;;;;;;8.10;1.90;;;;;;;12.13;100.00;98849.08;223646;1266;138935;-85
2023/11/06 08:52:53;;;;;;;3.80;1.30;;;;;;;12.37;100.00;98861.83;223187;1265;140678;-85
2023/11/06 08:58:55;;;;;;;6.90;1.70;;;;;;;12.42;100.00;98878.34;223268;1266;140010;-85
2023/11/06 09:04:50;;;;;;;;;;;;;;;;;;;;;
2023/11/06 09:10:57;;;;;;;4.50;1.60;;;;;;;12.37;100.00;98895.70;223043;1266;139952;-86
2023/11/06 09:16:59;;;;;;;7.60;1.80;;;;;;;12.34;100.00;98904.20;223717;1266;138459;-85
2023/11/06 09:23:00;;;;;;;5.30;1.00;;;;;;;12.25;100.00;98911.40;223192;1266;139345;-85
2023/11/06 09:29:01;;;;;;;7.30;1.70;;;;;;;12.20;100.00;98923.63;219109;1266;5412861;-85
2023/11/06 09:34:59;;;;;;;;;;;;;;;;;;;;;
2023/11/06 09:41:01;;;;;;;5.90;1.60;;;;;;;12.16;100.00;98938.05;222945;1266;140752;-85
2023/11/06 09:52:45;;;;;;;6.70;1.40;;;;;;;12.20;99.95;98952.31;223270;1270;139725;-85
2023/11/06 09:58:25;;;;;;;4.90;1.40;;;;;;;12.23;100.00;98965.40;223114;1266;139665;-85
2023/11/06 10:04:09;;;;;;;;;;;;;;;;;;;;;
2023/11/06 10:10:09;;;;;;;6.00;1.30;;;;;;;12.33;99.72;98973.48;223231;1265;139477;-84
2023/11/06 10:16:13;;;;;;;10.10;1.50;;;;;;;12.38;99.66;98982.15;223752;1266;138350;-85
2023/11/06 10:22:14;;;;;;;9.90;1.30;;;;;;;12.39;99.15;98986.70;223169;1265;139307;-84
2023/11/06 10:28:26;;;;;;;7.30;1.70;;;;;;;12.43;98.70;98993.63;223201;1266;139872;-84
2023/11/06 10:40:29;;;;;;;;;;;;;;;;;;;;;
2023/11/06 10:46:31;;;;;;;5.30;1.40;;;;;;;12.57;98.80;99011.10;223833;1266;138323;-85
2023/11/06 10:52:33;;;;;;;3.40;1.30;;;;;;;12.60;98.65;99013.95;223101;1265;139654;-84
2023/11/06 10:58:36;;;;;;;8.00;1.60;;;;;;;12.64;97.98;99016.88;223011;1266;140043;-83
2023/11/06 11:10:38;;;;;;;2.80;1.30;;;;;;;12.69;97.81;99031.05;223103;1266;138859;-84
2023/11/06 11:16:40;;;;;;;5.80;1.20;;;;;;;12.83;97.02;99034.65;223683;1266;138803;-84
2023/11/06 11:22:49;;;;;;;6.00;1.50;;;;;;;12.99;96.97;99041.19;223117;1266;139518;-85
2023/11/06 11:28:52;;;;;;;4.10;1.10;;;;;;;13.03;94.83;99043.16;223155;1266;139305;-84
2023/11/06 11:35:08;;;;;;;8.90;1.50;;;;;;;13.04;94.72;99049.13;223414;1266;138289;-84
2023/11/06 11:41:24;;;;;;;3.20;1.30;;;;;;;13.05;94.48;99061.02;223097;1266;139596;-85
2023/11/06 11:47:40;;;;;;;7.30;1.30;;;;;;;13.19;93.33;99070.20;223755;1265;95716;-85
2023/11/06 11:53:42;;;;;;;4.80;1.10;;;;;;;13.24;92.69;99080.92;223833;1266;95946;-84
2023/11/06 11:59:35;;;;;;;3.80;1.40;;;;;;;13.21;91.93;99084.13;223260;1266;139633;-84
2023/11/06 12:11:30;;;;;;;;;;;;;;;;;;;;;
2023/11/06 12:17:33;;;;;;;4.80;1.50;;;;;;;13.28;92.42;99102.29;223502;1270;138475;-83
2023/11/06 12:23:33;;;;;;;2.40;1.20;;;;;;;13.28;93.02;99113.58;223695;1269;138126;-84
2023/11/06 12:29:35;;;;;;;3.90;1.50;;;;;;;13.30;92.52;99112.68;223176;1269;139370;-85
2023/11/06 12:35:51;;;;;;;4.30;1.30;;;;;;;13.30;92.62;99123.02;223870;1267;138312;-84
2023/11/06 12:41:57;;;;;;;4.80;1.60;;;;;;;13.28;92.70;99134.17;222816;1266;139511;-84
2023/11/06 12:47:56;;;;;;;6.90;1.60;;;;;;;13.25;92.55;99140.96;223682;1265;95986;-84
2023/11/06 12:53:54;;;;;;;4.60;1.20;;;;;;;13.19;92.82;99146.05;223639;1266;95973;-84
2023/11/06 12:59:54;;;;;;;;;;;;;;;;;;;;;
2023/11/06 13:05:32;;;;;;;3.80;1.30;;;;;;;13.12;92.60;99172.08;223691;1269;139188;-86
2023/11/06 13:11:33;;;;;;;4.50;1.50;;;;;;;13.02;92.82;99175.20;223223;1267;139201;-84
2023/11/06 13:17:33;;;;;;;4.70;1.40;;;;;;;12.91;93.83;99179.23;223695;1267;138305;-84
2023/11/06 13:23:39;;;;;;;6.60;1.40;;;;;;;12.87;94.09;99192.48;223625;1266;138979;-84
2023/11/06 13:29:39;;;;;;;;;;;;;;;;;;;;;
2023/11/06 13:35:44;;;;;;;5.90;1.80;;;;;;;12.76;96.12;99219.83;223769;1269;137840;-83
2023/11/06 13:41:44;;;;;;;6.90;1.50;;;;;;;12.79;95.87;99213.52;223096;1267;139439;-84
2023/11/06 13:47:36;;;;;;;10.90;1.60;;;;;;;12.82;95.03;99221.75;223636;1267;138939;-83
2023/11/06 14:05:52;;;;;;;9.60;1.70;;;;;;;12.63;94.88;99242.98;223730;1267;139444;-83
2023/11/06 14:11:53;;;;;;;8.20;2.00;;;;;;;12.54;94.67;99247.06;223058;1267;139283;-83
2023/11/06 14:23:45;;;;;;;;;;;;;;;;;;;;;
2023/11/06 14:29:38;;;;;;;7.10;1.90;;;;;;;12.30;97.05;99286.52;223119;1267;140123;-84
2023/11/06 14:35:39;;;;;;;4.60;1.60;;;;;;;12.23;97.45;99284.34;223642;1267;138878;-84
2023/11/06 14:41:40;;;;;;;5.20;1.40;;;;;;;12.14;97.45;99298.50;223077;1267;139099;-84
2023/11/06 14:47:41;;;;;;;7.90;1.70;;;;;;;12.04;97.10;99300.52;223729;1267;139003;-84
2023/11/06 14:53:43;;;;;;;4.80;1.60;;;;;;;11.94;97.10;99308.84;223435;1266;390327;-84
2023/11/06 14:59:29;;;;;;;6.20;1.40;;;;;;;11.84;97.16;99307.54;223056;1266;139869;-84
2023/11/06 15:05:29;;;;;;;;;;;;;;;;;;;;;
2023/11/06 15:11:23;;;;;;;;;;;;;;;;;;;;;
2023/11/06 15:17:13;;;;;;;4.10;1.60;;;;;;;11.51;97.58;99324.89;223698;1265;138888;-84
2023/11/06 15:23:15;;;;;;;7.50;1.80;;;;;;;11.39;98.13;99331.94;223625;1265;139064;-84
2023/11/06 15:29:17;;;;;;;12.90;3.20;;;;;;;11.29;98.51;99339.98;223111;1265;139122;-85
2023/11/06 15:35:16;;;;;;;;;;;;;;;;;;;;;
2023/11/06 15:40:57;;;;;;;8.70;2.70;;;;;;;11.10;99.60;99365.41;223058;1265;139094;-84
2023/11/06 15:46:48;;;;;;;11.60;3.20;;;;;;;11.02;99.96;99376.17;223753;1265;138416;-84
2023/11/06 15:52:49;;;;;;;10.80;3.00;;;;;;;10.94;100.00;99381.10;223208;1265;139352;-84
2023/11/06 15:58:50;;;;;;;8.90;2.60;;;;;;;10.88;100.00;99395.70;223235;1265;139986;-84
2023/11/06 16:04:30;;;;;;;8.40;2.80;;;;;;;10.82;100.00;99404.39;223590;1265;138974;-83
2023/11/06 16:10:24;;;;;;;7.70;2.40;;;;;;;10.80;100.00;99406.45;223223;1265;139573;-83
2023/11/06 16:16:25;;;;;;;6.30;2.30;;;;;;;10.78;100.00;99415.73;223744;1269;138610;-84
2023/11/06 16:22:04;;;;;;;6.30;2.40;;;;;;;10.77;100.00;99428.16;223199;1266;139901;-83
2023/11/06 16:28:05;;;;;;;7.40;2.30;;;;;;;10.77;100.00;99433.20;223096;1265;139585;-82
2023/11/06 16:33:59;;;;;;;;;;;;;;;;;;;;;
2023/11/06 16:40:02;;;;;;;12.10;4.10;;;;;;;10.71;100.00;99447.55;223080;1265;140720;-82
2023/11/06 16:46:02;;;;;;;8.70;3.50;;;;;;;10.67;100.00;99451.96;223620;1265;140167;-83
2023/11/06 16:58:05;;;;;;;13.00;4.90;;;;;;;10.60;100.00;99454.52;223062;1267;139533;-83
2023/11/06 17:04:06;;;;;;;18.00;7.60;;;;;;;10.56;100.00;99460.59;223748;1265;139546;-83
2023/11/06 17:10:07;;;;;;;13.90;5.40;;;;;;;10.51;100.00;99464.93;223187;1265;139758;-83
2023/11/06 17:16:07;;;;;;;;;;;;;;;;;;;;;
2023/11/06 17:22:09;;;;;;;16.80;7.10;;;;;;;10.37;100.00;99469.70;223206;1265;139432;-83
2023/11/06 17:28:10;;;;;;;16.80;6.20;;;;;;;10.29;100.00;99473.66;223161;1269;140132;-84
2023/11/06 17:34:33;;;;;;;14.30;6.10;;;;;;;10.23;100.00;99473.75;223740;1265;139411;-84
2023/11/06 17:40:15;;;;;;;14.90;6.80;;;;;;;10.17;100.00;99478.80;223013;1269;139817;-84
2023/11/06 17:52:09;;;;;;;;;;;;;;;;;;;;;
2023/11/06 17:58:32;;;;;;;18.00;7.50;;;;;;;9.97;100.00;99497.42;223075;1265;139688;-84
2023/11/06 18:04:18;;;;;;;20.60;7.80;;;;;;;9.90;100.00;99508.42;223785;1265;138665;-83
2023/11/06 18:10:19;;;;;;;18.70;6.50;;;;;;;9.87;100.00;99511.96;223031;1265;139171;-84
2023/11/06 18:16:20;;;;;;;17.00;6.50;;;;;;;9.85;100.00;99521.70;223739;1265;138266;-83
2023/11/06 18:22:20;;;;;;;15.60;6.20;;;;;;;9.87;100.00;99529.63;223116;1265;139838;-85
2023/11/06 18:28:14;;;;;;;18.10;5.90;;;;;;;9.87;100.00;99532.15;223218;1265;139369;-83
2023/11/06 18:34:15;;;;;;;20.20;6.50;;;;;;;9.87;100.00;99540.46;223764;1265;139443;-83
2023/11/06 18:40:06;;;;;;;;;;;;;;;;;;;;;
2023/11/06 18:46:08;;;;;;;15.40;6.10;;;;;;;9.84;100.00;99556.33;223783;1265;139188;-84
2023/11/06 18:52:09;;;;;;;16.80;5.90;;;;;;;9.80;100.00;99562.20;223063;1265;139187;-84
2023/11/06 19:04:09;;;;;;;;;;;;;;;;;;;;;
2023/11/06 19:10:01;;;;;;;19.20;6.00;;;;;;;9.73;100.00;99580.97;222953;1265;139500;-84
2023/11/06 19:16:03;;;;;;;19.40;6.30;;;;;;;9.72;100.00;99586.16;223666;1266;139601;-83
2023/11/06 19:21:55;;;;;;;;;;;;;;;;;;;;;
2023/11/06 19:27:58;;;;;;;13.30;5.50;;;;;;;9.67;100.00;99595.24;223698;1265;139380;-83
2023/11/06 19:33:50;;;;;;;;;;;;;;;;;;;;;
2023/11/06 19:39:58;;;;;;;;;;;;;;;;;;;;;
2023/11/06 19:45:53;;;;;;;;;;;;;;;;;;;;;
2023/11/06 19:52:03;;;;;;;19.80;6.40;;;;;;;9.55;100.00;99612.58;223238;1265;139881;-82
2023/11/06 19:58:03;;;;;;;20.30;6.50;;;;;;;9.52;100.00;99617.44;223573;1265;138580;-83
2023/11/06 20:03:46;;;;;;;18.10;5.70;;;;;;;9.46;100.00;99621.10;223553;1265;138775;-82
2023/11/06 20:09:30;;;;;;;15.20;5.30;;;;;;;9.44;100.00;99623.85;223195;1265;139342;-83
2023/11/06 20:15:32;;;;;;;18.00;5.20;;;;;;;9.41;100.00;99629.27;223696;1265;139610;-83
2023/11/06 20:21:15;;;;;;;;;;;;;;;;;;;;;
2023/11/06 20:26:57;;;;;;;16.20;5.20;;;;;;;9.36;100.00;99633.79;223749;1265;138768;-84
2023/11/06 20:32:58;;;;;;;21.70;7.60;;;;;;;9.32;100.00;99638.80;223075;1265;139324;-85
2023/11/06 20:38:54;;;;;;;16.50;6.30;;;;;;;9.29;100.00;99651.27;223199;1265;140532;-82
2023/11/06 20:45:02;;;;;;;23.40;7.80;;;;;;;9.23;100.00;99654.06;223816;1265;138565;-82
2023/11/06 20:50:53;;;;;;;;;;;;;;;;;;;;;
2023/11/06 20:57:17;;;;;;;17.30;6.60;;;;;;;9.10;100.00;99660.67;223712;1265;138735;-82
2023/11/06 21:02:59;;;;;;;14.30;6.30;;;;;;;9.02;100.00;99670.04;223218;1265;138904;-83
2023/11/06 21:08:53;;;;;;;18.00;6.20;;;;;;;8.95;100.00;99678.63;223295;1265;139456;-81
2023/11/06 21:14:54;;;;;;;20.40;7.40;;;;;;;8.89;100.00;99676.88;223719;1265;138411;-83
2023/11/06 21:20:55;;;;;;;18.70;6.30;;;;;;;8.86;100.00;99680.23;223174;1265;139113;-82
2023/11/06 21:26:48;;;;;;;;;;;;;;;;;;;;;
2023/11/06 21:32:33;;;;;;;16.30;5.90;;;;;;;8.81;100.00;99687.55;219081;1265;5445767;-83
2023/11/06 21:44:35;;;;;;;17.50;5.70;;;;;;;8.73;100.00;99685.16;223825;1265;139145;-83
2023/11/06 21:50:37;;;;;;;21.10;5.80;;;;;;;8.67;100.00;99689.20;223044;1265;139190;-82
2023/11/06 21:56:38;;;;;;;17.50;6.20;;;;;;;8.61;100.00;99680.70;223719;1265;139244;-83
2023/11/06 22:02:40;;;;;;;14.50;5.70;;;;;;;8.56;100.00;99680.27;223150;1265;138940;-83
2023/11/06 22:08:41;;;;;;;14.20;5.70;;;;;;;8.49;100.00;99687.35;223081;1265;139319;-83
2023/11/06 22:14:42;;;;;;;18.10;6.10;;;;;;;8.43;100.00;99688.70;223672;1265;138490;-83
2023/11/06 22:20:44;;;;;;;15.10;6.20;;;;;;;8.38;100.00;99696.74;223060;1265;139309;-83
2023/11/06 22:26:37;;;;;;;;;;;;;;;;;;;;;
2023/11/06 22:32:41;;;;;;;23.10;7.70;;;;;;;8.28;100.00;99703.16;223215;1265;139308;-83
2023/11/06 22:38:43;;;;;;;24.70;7.60;;;;;;;8.23;100.00;99702.49;223312;1269;139140;-82
2023/11/06 22:44:44;;;;;;;20.70;7.60;;;;;;;8.19;100.00;99702.98;223684;1265;138976;-82
2023/11/06 22:56:47;;;;;;;19.40;6.40;;;;;;;8.07;100.00;99703.95;223726;1269;138481;-84
2023/11/06 23:02:48;;;;;;;14.60;6.00;;;;;;;8.01;100.00;99706.55;223133;1265;139305;-83
2023/11/06 23:08:49;;;;;;;20.10;6.50;;;;;;;7.95;100.00;99704.62;223153;1269;139164;-84
2023/11/06 23:14:51;;;;;;;16.10;6.50;;;;;;;7.90;100.00;99707.16;223726;1269;138576;-82
2023/11/06 23:20:46;;;;;;;19.10;6.20;;;;;;;7.85;100.00;99712.27;223071;1265;139621;-82
2023/11/06 23:26:35;;;;;;;;;;;;;;;;;;;;;
2023/11/06 23:32:37;;;;;;;18.10;6.60;;;;;;;7.73;100.00;99720.60;223073;1265;140731;-82
2023/11/06 23:38:38;;;;;;;17.80;6.60;;;;;;;7.68;100.00;99724.99;223055;1265;139055;-82
2023/11/06 23:44:40;;;;;;;15.80;6.70;;;;;;;7.63;100.00;99735.52;223705;1269;138864;-83
2023/11/06 23:50:41;;;;;;;18.30;6.70;;;;;;;7.59;100.00;99737.96;223106;1265;139362;-82
2023/11/06 23:56:42;;;;;;;14.70;6.00;;;;;;;7.57;100.00;99739.52;223688;1265;138494;-83
